Time;durP1;ratioP1;P1;durP2;ratioP2;P2;SDS_P1;SDS_P2;PMS_P1;PMS_P2;Temp;Humidity;BMP_temperature;BMP_pressure;BME280_temperature;BME280_humidity;BME280_pressure;Samples;Min_cycle;Max_cycle;Signal;HPM_P1;HPM_P2
2022/03/02 06:55:32;;;;;;;172.00;71.50;;;1.20;99.90;;;;;;5111048;27;20393;-53
2022/03/02 06:58:00;;;;;;;201.40;84.10;;;1.30;99.90;;;;;;5111264;28;20048;-57
2022/03/02 07:00:26;;;;;;;197.87;83.83;;;1.50;99.90;;;;;;5104175;28;20032;-53
2022/03/02 07:03:06;;;;;;;196.80;78.67;;;1.70;99.90;;;;;;5109364;28;20016;-58
2022/03/02 07:05:33;;;;;;;240.85;103.78;;;2.00;99.90;;;;;;5105199;28;20032;-51
2022/03/02 07:08:01;;;;;;;192.50;88.00;;;2.20;99.90;;;;;;5105010;28;20020;-52
2022/03/02 07:10:27;;;;;;;187.77;83.28;;;2.40;99.90;;;;;;5105238;28;20030;-54
2022/03/02 07:12:53;;;;;;;211.63;87.15;;;2.60;99.90;;;;;;5109578;28;20020;-55
2022/03/02 07:15:19;;;;;;;182.00;83.05;;;2.80;99.90;;;;;;5106313;28;20059;-57
2022/03/02 07:17:45;;;;;;;167.48;76.75;;;2.90;99.90;;;;;;5096001;28;20023;-51
2022/03/02 07:20:13;;;;;;;213.70;86.05;;;3.10;99.90;;;;;;5094743;28;20025;-52
2022/03/02 07:22:52;;;;;;;158.43;74.55;;;3.30;99.90;;;;;;5097008;28;20539;-54
2022/03/02 07:25:25;;;;;;;177.95;80.30;;;3.40;99.90;;;;;;5110570;28;20028;-56
2022/03/02 07:27:53;;;;;;;168.73;75.63;;;3.50;99.90;;;;;;5106427;28;20146;-56
2022/03/02 07:30:19;;;;;;;184.07;79.18;;;3.70;99.90;;;;;;5087225;28;20024;-51
2022/03/02 07:32:46;;;;;;;223.27;94.60;;;3.90;99.90;;;;;;5099799;28;20026;-55
2022/03/02 07:35:15;;;;;;;181.18;81.65;;;4.00;99.90;;;;;;5107175;28;20076;-59
2022/03/02 07:37:42;;;;;;;174.32;78.72;;;4.40;99.90;;;;;;5102320;28;20497;-59
2022/03/02 07:40:10;;;;;;;183.43;81.03;;;4.80;99.90;;;;;;5098858;28;20028;-52
2022/03/02 07:42:37;;;;;;;145.20;67.40;;;4.60;99.90;;;;;;5106524;28;20641;-53
2022/03/02 07:45:04;;;;;;;139.85;64.32;;;4.70;99.90;;;;;;5106537;28;20024;-56
2022/03/02 07:47:30;;;;;;;131.90;58.78;;;5.10;99.90;;;;;;5106435;28;20100;-58
2022/03/02 07:49:56;;;;;;;122.68;59.30;;;5.70;99.90;;;;;;5104920;28;20062;-60
2022/03/02 07:52:25;;;;;;;105.38;54.28;;;6.90;99.90;;;;;;5086870;28;20427;-54
2022/03/02 07:54:58;;;;;;;104.40;50.00;;;8.30;93.70;;;;;;5104273;28;20527;-53
2022/03/02 07:57:25;;;;;;;111.50;53.83;;;9.80;79.50;;;;;;5087140;28;20488;-53
2022/03/02 07:59:54;;;;;;;122.63;59.08;;;11.20;68.80;;;;;;5103095;28;20175;-58
2022/03/02 08:02:23;;;;;;;103.97;53.53;;;12.30;61.30;;;;;;5105837;28;20047;-55
2022/03/02 08:04:52;;;;;;;132.68;60.55;;;12.50;59.20;;;;;;5097334;28;20050;-56
2022/03/02 08:07:19;;;;;;;154.45;75.80;;;12.90;56.90;;;;;;5092214;28;20420;-54
2022/03/02 08:09:44;;;;;;;127.68;66.47;;;13.20;57.00;;;;;;5095642;28;20020;-50
2022/03/02 08:12:11;;;;;;;134.48;69.72;;;13.80;55.40;;;;;;5094873;28;20031;-56
2022/03/02 08:14:37;;;;;;;128.43;64.22;;;14.60;54.00;;;;;;5095661;28;20020;-57
2022/03/02 08:17:06;;;;;;;112.28;57.60;;;15.00;51.70;;;;;;5091666;28;20032;-53
2022/03/02 08:19:32;;;;;;;115.97;58.08;;;15.20;50.70;;;;;;5091209;28;20111;-57
2022/03/02 08:22:00;;;;;;;114.78;58.75;;;13.20;51.70;;;;;;5092107;28;20107;-50
2022/03/02 08:24:26;;;;;;;119.30;57.70;;;12.30;54.60;;;;;;5092518;28;20527;-58
2022/03/02 08:26:57;;;;;;;129.43;62.53;;;12.00;54.90;;;;;;5092704;28;20327;-62
2022/03/02 08:29:25;;;;;;;138.02;66.80;;;11.70;57.60;;;;;;5091672;28;20013;-60
2022/03/02 08:31:57;;;;;;;97.25;52.40;;;12.50;56.10;;;;;;5091097;28;20031;-61
2022/03/02 08:34:23;;;;;;;102.68;52.60;;;13.30;55.10;;;;;;5090696;28;20115;-63
2022/03/02 08:36:50;;;;;;;89.78;49.53;;;14.30;52.70;;;;;;5085656;28;20107;-70
2022/03/02 08:39:16;;;;;;;93.80;50.53;;;15.30;50.10;;;;;;5081123;28;20028;-65
2022/03/02 08:41:42;;;;;;;89.97;47.75;;;15.80;48.30;;;;;;5067866;28;20068;-67
2022/03/02 08:44:12;;;;;;;77.75;45.15;;;16.30;46.00;;;;;;5061808;28;20050;-66
2022/03/02 08:46:38;;;;;;;77.45;46.58;;;16.30;46.70;;;;;;5062371;28;20060;-64
2022/03/02 08:49:05;;;;;;;67.93;40.38;;;16.50;46.50;;;;;;5065576;28;20016;-63
2022/03/02 08:51:33;;;;;;;75.43;40.60;;;16.80;45.80;;;;;;5067623;28;20496;-60
2022/03/02 08:54:00;;;;;;;74.35;40.80;;;16.10;46.50;;;;;;5065681;28;20044;-62
2022/03/02 08:56:26;;;;;;;61.10;37.08;;;15.50;44.70;;;;;;5068869;28;20028;-62
2022/03/02 08:58:55;;;;;;;50.65;30.17;;;13.60;48.30;;;;;;5067598;28;20466;-61
2022/03/02 09:01:23;;;;;;;46.88;28.45;;;12.80;48.50;;;;;;5066548;28;20639;-62
2022/03/02 09:03:53;;;;;;;47.08;28.67;;;12.40;50.00;;;;;;5086579;28;20099;-68
2022/03/02 09:06:22;;;;;;;52.75;30.33;;;11.90;51.60;;;;;;5086083;28;20028;-65
2022/03/02 09:08:48;;;;;;;61.83;33.58;;;11.80;52.10;;;;;;5088921;28;20470;-60
2022/03/02 09:11:14;;;;;;;69.65;40.58;;;11.20;51.50;;;;;;5072877;28;20428;-64
2022/03/02 09:13:40;;;;;;;53.28;33.00;;;10.70;52.40;;;;;;5070860;28;20113;-65
2022/03/02 09:16:06;;;;;;;53.42;31.33;;;10.40;53.50;;;;;;5089497;28;20469;-61
2022/03/02 09:18:33;;;;;;;43.25;25.75;;;10.40;53.20;;;;;;5090110;28;20031;-60
2022/03/02 09:21:06;;;;;;;39.15;25.35;;;9.50;53.20;;;;;;5088781;28;20024;-60
2022/03/02 09:23:41;;;;;;;37.33;22.42;;;9.30;57.50;;;;;;5071266;28;20031;-64
2022/03/02 09:26:11;;;;;;;33.03;21.02;;;9.50;55.60;;;;;;5090793;28;20396;-63
2022/03/02 09:28:39;;;;;;;30.58;20.50;;;9.20;54.90;;;;;;5086922;28;20026;-66
2022/03/02 09:31:08;;;;;;;31.15;21.10;;;9.30;57.40;;;;;;5090041;28;20016;-62
2022/03/02 09:33:35;;;;;;;37.38;23.75;;;9.30;57.60;;;;;;5088787;28;20581;-63
2022/03/02 09:36:07;;;;;;;32.85;21.80;;;9.40;57.80;;;;;;5089799;28;20026;-68
2022/03/02 09:38:34;;;;;;;32.30;21.60;;;9.40;56.50;;;;;;5087681;28;20031;-65
2022/03/02 09:41:05;;;;;;;39.60;23.98;;;9.50;57.00;;;;;;5088413;28;20380;-62
2022/03/02 09:43:33;;;;;;;43.17;28.17;;;9.60;57.60;;;;;;5080750;28;20053;-66
2022/03/02 09:46:06;;;;;;;40.30;26.00;;;9.50;57.70;;;;;;5082642;28;20024;-61
2022/03/02 09:48:41;;;;;;;44.30;26.10;;;9.30;58.10;;;;;;5073867;28;20489;-64
2022/03/02 09:51:08;;;;;;;38.10;25.77;;;9.70;61.00;;;;;;5089438;28;20016;-66
2022/03/02 09:53:35;;;;;;;36.05;23.75;;;10.00;57.30;;;;;;5086626;28;20051;-63
2022/03/02 09:56:06;;;;;;;38.22;23.60;;;10.40;56.10;;;;;;5071294;28;20423;-70
2022/03/02 09:58:38;;;;;;;37.35;25.35;;;11.00;55.10;;;;;;5067509;28;20034;-69
2022/03/02 10:01:13;;;;;;;39.75;26.15;;;11.50;53.20;;;;;;5062621;28;20554;-63
2022/03/02 10:03:45;;;;;;;38.50;25.58;;;11.70;52.90;;;;;;5065445;28;20036;-67
2022/03/02 10:06:12;;;;;;;42.58;26.85;;;11.60;52.70;;;;;;5091866;28;20047;-65
2022/03/02 10:08:49;;;;;;;39.72;25.88;;;11.60;51.80;;;;;;5092525;28;20042;-70
2022/03/02 10:11:19;;;;;;;40.72;26.63;;;11.60;53.00;;;;;;5073848;28;20012;-71
2022/03/02 10:13:46;;;;;;;42.53;27.38;;;11.80;55.00;;;;;;5091679;28;20028;-68
2022/03/02 10:16:19;;;;;;;45.50;28.50;;;11.80;54.00;;;;;;5091217;28;20024;-67
2022/03/02 10:18:55;;;;;;;42.17;28.63;;;11.80;55.30;;;;;;5079428;28;20034;-68
2022/03/02 10:21:29;;;;;;;34.30;24.95;;;11.80;53.20;;;;;;5078310;28;20077;-68
2022/03/02 10:24:04;;;;;;;31.50;22.52;;;11.80;52.80;;;;;;5091346;28;20119;-66
2022/03/02 10:26:34;;;;;;;33.53;24.70;;;11.80;53.10;;;;;;5066818;28;20020;-64
2022/03/02 10:29:28;;;;;;;37.40;26.23;;;12.00;55.10;;;;;;5079335;28;20024;-64
2022/03/02 10:32:08;;;;;;;34.50;23.08;;;12.10;55.60;;;;;;5075301;28;20634;-62
2022/03/02 10:34:52;;;;;;;31.05;21.85;;;12.40;55.40;;;;;;5081578;28;20351;-64
2022/03/02 10:37:20;;;;;;;;;;;12.70;53.40;;;;;;5077731;28;20013;-64
2022/03/02 10:39:50;;;;;;;26.77;19.58;;;12.90;51.90;;;;;;5069398;28;19922;-63
2022/03/02 10:42:24;;;;;;;23.50;17.60;;;13.20;49.10;;;;;;5084340;28;20016;-59
2022/03/02 10:45:03;;;;;;;21.02;15.77;;;13.50;47.70;;;;;;5081808;28;20035;-56
2022/03/02 10:47:30;;;;;;;24.52;17.50;;;13.40;47.10;;;;;;5079760;28;20028;-66
2022/03/02 10:49:59;;;;;;;22.27;17.95;;;13.20;45.90;;;;;;5083322;28;20035;-65
2022/03/02 10:52:29;;;;;;;18.92;15.18;;;12.90;47.50;;;;;;5083257;28;20028;-66
2022/03/02 10:54:57;;;;;;;17.15;13.20;;;12.90;50.00;;;;;;5064893;28;20052;-63
2022/03/02 10:57:28;;;;;;;20.33;16.23;;;13.20;48.00;;;;;;5070596;28;20510;-63
2022/03/02 10:59:57;;;;;;;26.83;19.08;;;13.30;47.50;;;;;;5068575;28;20025;-61
2022/03/02 11:02:23;;;;;;;26.25;16.85;;;13.30;48.50;;;;;;5062984;28;20032;-64
2022/03/02 11:04:54;;;;;;;25.63;18.65;;;13.30;51.60;;;;;;5055099;28;20491;-68
2022/03/02 11:07:21;;;;;;;26.98;17.83;;;13.80;50.40;;;;;;5058209;28;20017;-64
2022/03/02 11:09:52;;;;;;;21.35;16.65;;;14.20;50.80;;;;;;5061091;28;20026;-63
2022/03/02 11:12:21;;;;;;;27.50;18.83;;;14.50;48.80;;;;;;5063318;28;20029;-66
2022/03/02 11:14:54;;;;;;;19.73;16.92;;;14.60;47.80;;;;;;5063470;28;20024;-63
2022/03/02 11:17:20;;;;;;;22.43;18.10;;;15.00;45.60;;;;;;5064457;28;20505;-63
2022/03/02 11:19:46;;;;;;;23.30;18.17;;;15.10;43.80;;;;;;5066721;28;20269;-60
2022/03/02 11:22:18;;;;;;;20.48;16.63;;;14.90;44.10;;;;;;5062342;28;20078;-62
2022/03/02 11:24:45;;;;;;;22.42;17.83;;;14.80;43.30;;;;;;5064801;28;20036;-61
2022/03/02 11:27:28;;;;;;;19.83;16.98;;;14.90;45.40;;;;;;5066568;28;20535;-64
2022/03/02 11:30:06;;;;;;;23.35;18.40;;;14.80;42.80;;;;;;5062472;28;20016;-65
2022/03/02 11:32:34;;;;;;;22.05;18.13;;;14.20;42.20;;;;;;5057093;28;20036;-62
2022/03/02 11:35:03;;;;;;;20.23;15.43;;;13.30;45.30;;;;;;5547411;22;20526;-61
2022/03/02 11:37:34;;;;;;;21.73;16.80;;;13.50;45.70;;;;;;5090600;28;20158;-63
2022/03/02 11:40:02;;;;;;;30.92;22.70;;;13.80;47.00;;;;;;5074715;28;20016;-61
2022/03/02 11:42:32;;;;;;;25.42;18.67;;;13.90;48.20;;;;;;5096458;28;20099;-61
2022/03/02 11:44:59;;;;;;;20.77;16.05;;;14.00;45.10;;;;;;5096259;28;20162;-60
2022/03/02 11:47:33;;;;;;;36.05;22.00;;;14.40;41.60;;;;;;5096212;28;20031;-64
2022/03/02 11:50:00;;;;;;;20.85;15.55;;;14.60;43.80;;;;;;5096296;28;20081;-62
2022/03/02 11:52:28;;;;;;;19.88;15.10;;;14.50;43.70;;;;;;5094000;28;20028;-64
2022/03/02 11:54:58;;;;;;;16.75;13.15;;;14.70;42.90;;;;;;5078916;28;20024;-62
2022/03/02 11:57:26;;;;;;;18.63;13.18;;;14.80;43.40;;;;;;5096004;28;20046;-64
2022/03/02 12:00:18;;;;;;;15.25;13.02;;;14.50;41.90;;;;;;5089375;28;20020;-57
2022/03/02 12:02:53;;;;;;;17.35;13.50;;;14.30;42.40;;;;;;5078444;28;20532;-63
2022/03/02 12:05:22;;;;;;;16.63;12.52;;;14.30;41.60;;;;;;5074370;28;20472;-56
2022/03/02 12:07:50;;;;;;;14.40;11.27;;;14.40;41.60;;;;;;5084798;28;20028;-61
2022/03/02 12:10:23;;;;;;;12.07;10.75;;;14.30;41.60;;;;;;5090508;28;20031;-59
2022/03/02 12:12:50;;;;;;;13.27;11.20;;;14.30;41.50;;;;;;5092109;28;20016;-59
2022/03/02 12:15:17;;;;;;;13.27;11.27;;;14.10;42.40;;;;;;5093199;28;20267;-59
2022/03/02 12:17:44;;;;;;;13.27;10.82;;;13.80;40.90;;;;;;5082859;28;20804;-63
2022/03/02 12:20:16;;;;;;;14.82;10.30;;;13.70;41.20;;;;;;5087480;28;20020;-59
2022/03/02 12:22:48;;;;;;;11.37;9.20;;;13.60;45.80;;;;;;5084330;28;20024;-57
2022/03/02 12:25:17;;;;;;;11.60;8.70;;;13.90;45.30;;;;;;5081230;28;20032;-65
2022/03/02 12:27:56;;;;;;;13.45;10.23;;;14.10;42.50;;;;;;5083258;28;20024;-64
2022/03/02 12:30:23;;;;;;;16.00;11.55;;;14.40;43.90;;;;;;5090645;28;20470;-59
2022/03/02 12:32:53;;;;;;;14.80;10.18;;;14.20;41.70;;;;;;5093314;28;20016;-61
2022/03/02 12:35:23;;;;;;;12.02;9.32;;;13.90;42.10;;;;;;5089193;28;20074;-61
2022/03/02 12:37:51;;;;;;;19.40;12.15;;;13.80;43.00;;;;;;5066204;28;20055;-58
2022/03/02 12:40:18;;;;;;;16.15;10.23;;;13.60;42.70;;;;;;5054262;28;20032;-68
2022/03/02 12:42:44;;;;;;;18.83;11.40;;;13.30;43.20;;;;;;5071099;28;20117;-60
2022/03/02 12:45:11;;;;;;;12.27;10.07;;;13.20;44.40;;;;;;5074187;28;20063;-56
2022/03/02 12:47:49;;;;;;;13.75;9.50;;;12.90;44.20;;;;;;5074478;28;20027;-61
2022/03/02 12:50:16;;;;;;;10.88;8.23;;;12.70;44.80;;;;;;5056443;28;20378;-64
2022/03/02 12:52:43;;;;;;;12.00;8.38;;;12.70;44.70;;;;;;5069426;28;20028;-59
2022/03/02 12:55:16;;;;;;;8.68;7.72;;;12.70;45.80;;;;;;5068603;28;20028;-66
2022/03/02 12:57:48;;;;;;;9.55;7.40;;;13.00;45.40;;;;;;5064009;28;20029;-56
2022/03/02 13:00:22;;;;;;;11.18;8.23;;;13.10;45.80;;;;;;5060071;28;20056;-62
2022/03/02 13:02:58;;;;;;;10.90;8.15;;;12.80;43.80;;;;;;5067604;28;20374;-63
2022/03/02 13:06:02;;;;;;;9.65;7.85;;;12.60;44.70;;;;;;5046789;28;20379;-60
2022/03/02 13:08:43;;;;;;;7.57;6.78;;;12.30;44.60;;;;;;5025863;28;20115;-62
2022/03/02 13:11:28;;;;;;;9.75;8.02;;;12.30;44.20;;;;;;5061516;28;20033;-65
2022/03/02 13:13:54;;;;;;;13.45;10.23;;;12.40;44.90;;;;;;5056518;28;20053;-67
2022/03/02 13:16:24;;;;;;;10.00;7.82;;;12.80;42.00;;;;;;5052989;28;20451;-60
2022/03/02 13:18:53;;;;;;;10.63;8.05;;;13.00;45.50;;;;;;5053030;28;20389;-57
2022/03/02 13:21:25;;;;;;;9.18;7.65;;;13.40;41.50;;;;;;5055683;28;20082;-63
2022/03/02 13:24:14;;;;;;;10.45;8.25;;;13.80;40.00;;;;;;5092294;28;20447;-56
2022/03/02 13:26:58;;;;;;;12.18;10.15;;;13.70;41.00;;;;;;5092737;28;20020;-62
2022/03/02 13:29:28;;;;;;;11.15;9.77;;;13.80;41.30;;;;;;5093246;28;20023;-53
2022/03/02 13:31:59;;;;;;;12.88;11.10;;;13.70;40.60;;;;;;5087490;28;20040;-62
2022/03/02 13:34:34;;;;;;;10.35;8.80;;;13.80;40.60;;;;;;5083994;28;20034;-57
2022/03/02 13:37:02;;;;;;;10.95;8.70;;;13.70;40.10;;;;;;5066421;28;20412;-56
2022/03/02 13:39:41;;;;;;;10.32;9.23;;;13.90;40.30;;;;;;5093823;28;20091;-59
2022/03/02 13:42:19;;;;;;;12.52;10.35;;;14.20;40.70;;;;;;5091712;28;20020;-58
2022/03/02 13:44:46;;;;;;;14.50;11.18;;;14.30;39.40;;;;;;5091728;28;20213;-66
2022/03/02 13:47:12;;;;;;;13.00;9.80;;;14.50;38.50;;;;;;5091748;28;20494;-58
2022/03/02 13:49:50;;;;;;;13.38;10.68;;;14.20;38.90;;;;;;5090108;28;20068;-60
2022/03/02 13:52:22;;;;;;;10.30;9.30;;;14.40;39.40;;;;;;5088478;28;20042;-59
2022/03/02 13:54:48;;;;;;;13.00;8.87;;;14.60;39.70;;;;;;5090222;28;20455;-55
2022/03/02 13:57:28;;;;;;;9.43;8.18;;;14.60;38.70;;;;;;5063580;28;20040;-63
2022/03/02 14:00:18;;;;;;;10.77;8.90;;;14.50;39.50;;;;;;5058686;28;20044;-56
2022/03/02 14:02:46;;;;;;;8.95;7.80;;;14.60;38.30;;;;;;5066068;28;20028;-62
2022/03/02 14:05:12;;;;;;;9.10;8.20;;;14.70;36.70;;;;;;5071659;28;20501;-63
2022/03/02 14:07:38;;;;;;;8.80;7.80;;;14.70;37.70;;;;;;5072567;28;20028;-65
2022/03/02 14:10:10;;;;;;;10.27;8.23;;;14.80;39.40;;;;;;5072336;28;20465;-60
2022/03/02 14:12:52;;;;;;;19.40;10.80;;;14.90;38.30;;;;;;5072886;28;20032;-55
2022/03/02 14:15:20;;;;;;;9.82;8.63;;;14.80;37.80;;;;;;5072683;28;20027;-61
2022/03/02 14:17:46;;;;;;;16.85;11.40;;;14.10;39.40;;;;;;5072064;28;20070;-61
2022/03/02 14:20:13;;;;;;;11.82;9.65;;;14.10;39.20;;;;;;5072385;28;20017;-64
2022/03/02 14:22:40;;;;;;;13.00;9.82;;;13.40;39.50;;;;;;5073450;28;20017;-63
2022/03/02 14:25:13;;;;;;;18.02;12.35;;;13.30;38.80;;;;;;5073563;28;20036;-63
2022/03/02 14:27:39;;;;;;;23.63;14.30;;;13.30;39.00;;;;;;5073444;28;20031;-62
2022/03/02 14:30:12;;;;;;;18.58;12.45;;;13.10;39.70;;;;;;5073212;28;20099;-63
2022/03/02 14:32:44;;;;;;;23.33;14.68;;;13.00;40.00;;;;;;5073417;28;20108;-57
2022/03/02 14:35:10;;;;;;;22.13;14.60;;;13.10;39.60;;;;;;5073111;28;20040;-56
2022/03/02 14:37:47;;;;;;;23.35;15.18;;;13.10;39.60;;;;;;5073507;28;20033;-59
2022/03/02 14:40:22;;;;;;;21.05;14.10;;;13.20;39.40;;;;;;5073382;28;20039;-61
2022/03/02 14:43:07;;;;;;;20.90;14.75;;;13.40;39.70;;;;;;5073018;28;20027;-67
2022/03/02 14:45:37;;;;;;;24.52;16.05;;;13.60;38.40;;;;;;5073483;28;20033;-56
2022/03/02 14:48:05;;;;;;;16.60;11.65;;;13.70;39.00;;;;;;5073245;28;20100;-65
2022/03/02 14:50:36;;;;;;;16.75;11.80;;;13.80;38.20;;;;;;5073296;28;20530;-61
2022/03/02 14:53:10;;;;;;;24.30;15.63;;;13.70;38.00;;;;;;5073097;28;20096;-62
2022/03/02 14:55:39;;;;;;;19.25;12.55;;;13.80;37.60;;;;;;5073039;28;20025;-65
2022/03/02 14:58:15;;;;;;;19.05;13.02;;;13.80;37.80;;;;;;5072947;28;20116;-59
2022/03/02 15:00:57;;;;;;;24.42;15.45;;;13.90;39.00;;;;;;5073107;28;20494;-60
2022/03/02 15:03:29;;;;;;;28.05;18.42;;;13.60;36.90;;;;;;5073023;28;20470;-57
2022/03/02 15:06:03;;;;;;;18.80;12.35;;;13.40;37.40;;;;;;5073277;28;20107;-61
2022/03/02 15:08:29;;;;;;;17.38;12.70;;;13.20;37.20;;;;;;5073044;28;20028;-61
2022/03/02 15:10:55;;;;;;;16.15;11.23;;;13.20;38.10;;;;;;5072893;28;20025;-62
2022/03/02 15:16:13;;;;;;;19.13;12.93;;;13.10;38.10;;;;;;5074998;28;20031;-61
2022/03/02 15:18:39;;;;;;;20.55;15.30;;;13.00;38.60;;;;;;5077149;28;20024;-55
2022/03/02 15:21:05;;;;;;;110.22;56.50;;;12.90;39.70;;;;;;5077460;28;20028;-56
2022/03/02 15:23:33;;;;;;;60.42;37.47;;;12.70;43.30;;;;;;5076716;28;20032;-55
2022/03/02 15:25:59;;;;;;;92.43;48.88;;;12.30;41.60;;;;;;5076987;28;20021;-58
2022/03/02 15:28:25;;;;;;;61.42;37.42;;;12.10;43.80;;;;;;5076696;28;20024;-62
2022/03/02 15:30:58;;;;;;;33.85;22.40;;;12.00;41.90;;;;;;5076740;28;20017;-60
2022/03/02 15:33:27;;;;;;;;;;;12.20;40.00;;;;;;5077227;28;20025;-62
2022/03/02 15:36:09;;;;;;;18.13;12.50;;;12.20;38.80;;;;;;5076418;28;20336;-62
2022/03/02 15:38:36;;;;;;;16.23;10.98;;;11.90;40.40;;;;;;5076847;28;20036;-62
2022/03/02 15:41:02;;;;;;;16.90;12.10;;;11.70;39.40;;;;;;5076357;28;20039;-64
2022/03/02 15:43:28;;;;;;;17.00;11.35;;;11.50;40.00;;;;;;5076442;28;20044;-62
2022/03/02 15:45:53;;;;;;;14.70;11.38;;;11.70;39.80;;;;;;5076406;28;20052;-62
2022/03/02 15:48:24;;;;;;;20.20;12.65;;;11.80;38.70;;;;;;5076462;28;20445;-56
2022/03/02 15:50:53;;;;;;;20.80;13.35;;;11.60;38.80;;;;;;5076679;28;20029;-67
2022/03/02 15:53:27;;;;;;;18.05;12.40;;;11.40;39.20;;;;;;5076590;28;20036;-59
2022/03/02 15:55:58;;;;;;;17.65;12.75;;;11.40;39.10;;;;;;5076167;28;20103;-57
2022/03/02 15:58:32;;;;;;;18.88;12.50;;;11.40;39.00;;;;;;5076195;28;20017;-64
2022/03/02 16:00:58;;;;;;;16.92;12.02;;;11.60;39.80;;;;;;5076240;28;20033;-58
2022/03/02 16:03:28;;;;;;;21.83;13.20;;;11.70;39.50;;;;;;5076108;28;20111;-61
2022/03/02 16:05:56;;;;;;;19.42;12.88;;;11.80;38.70;;;;;;5076045;28;20095;-59
2022/03/02 16:08:25;;;;;;;26.73;16.90;;;11.80;39.60;;;;;;5076063;28;20474;-65
2022/03/02 16:11:08;;;;;;;20.02;13.02;;;11.70;40.30;;;;;;5075816;28;20024;-63
2022/03/02 16:13:35;;;;;;;74.05;38.90;;;11.70;40.80;;;;;;5076056;28;20070;-65
2022/03/02 16:16:10;;;;;;;207.68;111.35;;;12.10;43.30;;;;;;5076144;28;20024;-63
2022/03/02 16:18:36;;;;;;;152.40;84.03;;;11.40;46.70;;;;;;5075999;28;20039;-55
2022/03/02 16:21:16;;;;;;;181.63;99.88;;;10.50;47.00;;;;;;5076115;28;20046;-62
2022/03/02 16:23:46;;;;;;;152.80;87.93;;;9.80;50.40;;;;;;5075503;28;20025;-59
2022/03/02 16:26:12;;;;;;;197.60;102.35;;;9.30;52.20;;;;;;5075180;28;20102;-59
2022/03/02 16:28:43;;;;;;;223.65;114.75;;;8.70;54.50;;;;;;5075656;28;20027;-63
2022/03/02 16:31:12;;;;;;;212.15;117.22;;;8.30;55.60;;;;;;5075468;28;20020;-58
2022/03/02 16:33:45;;;;;;;176.82;93.50;;;7.90;55.30;;;;;;5075546;28;20017;-56
2022/03/02 16:36:12;;;;;;;272.13;128.82;;;7.80;54.80;;;;;;5075225;28;20565;-58
2022/03/02 16:38:38;;;;;;;276.90;135.95;;;7.60;56.70;;;;;;5075569;28;20428;-63
2022/03/02 16:41:04;;;;;;;201.43;98.70;;;7.40;57.10;;;;;;5075520;28;20021;-61
2022/03/02 16:43:30;;;;;;;139.65;76.82;;;7.20;59.10;;;;;;5075289;28;20024;-60
2022/03/02 16:45:56;;;;;;;134.50;72.47;;;6.90;60.90;;;;;;5075774;28;20032;-61
2022/03/02 16:48:22;;;;;;;170.98;90.43;;;6.50;64.50;;;;;;5075424;28;20029;-63
2022/03/02 16:50:50;;;;;;;180.20;105.28;;;6.30;68.00;;;;;;5075277;28;20050;-55
2022/03/02 16:53:16;;;;;;;188.25;103.05;;;6.00;72.10;;;;;;5074969;28;20024;-56
2022/03/02 16:55:41;;;;;;;329.48;177.85;;;5.90;74.20;;;;;;5075210;28;20032;-61
2022/03/02 16:58:09;;;;;;;470.42;272.45;;;5.70;78.40;;;;;;5075006;28;20024;-54
2022/03/02 17:00:40;;;;;;;491.25;285.08;;;5.60;79.40;;;;;;5075005;28;20363;-62
2022/03/02 17:03:16;;;;;;;428.50;246.38;;;5.60;80.90;;;;;;5075139;28;20114;-63
2022/03/02 17:05:43;;;;;;;394.98;235.88;;;5.80;78.20;;;;;;5074824;28;20029;-63
2022/03/02 17:08:09;;;;;;;411.45;255.90;;;5.90;76.70;;;;;;5075015;28;20154;-58
2022/03/02 17:10:35;;;;;;;348.10;213.60;;;6.10;75.40;;;;;;5074905;28;20052;-56
2022/03/02 17:13:01;;;;;;;236.85;146.55;;;6.10;75.20;;;;;;5074791;28;20021;-59
2022/03/02 17:15:28;;;;;;;227.25;126.78;;;6.00;75.10;;;;;;5075051;28;20029;-62
2022/03/02 17:17:55;;;;;;;374.42;206.80;;;5.80;77.40;;;;;;5074797;28;20016;-54
2022/03/02 17:20:21;;;;;;;350.83;182.65;;;5.50;83.60;;;;;;5074668;28;20027;-61
2022/03/02 17:22:48;;;;;;;384.77;196.98;;;5.30;88.60;;;;;;5074646;28;20028;-58
2022/03/02 17:25:14;;;;;;;363.80;195.27;;;5.00;91.40;;;;;;5074595;28;20058;-60
2022/03/02 17:27:41;;;;;;;223.65;124.88;;;4.80;94.40;;;;;;5074476;28;20482;-59
2022/03/02 17:30:12;;;;;;;148.07;83.88;;;4.70;95.70;;;;;;5074428;28;20085;-64
2022/03/02 17:32:42;;;;;;;176.40;97.22;;;4.90;91.20;;;;;;5074574;28;20023;-59
2022/03/02 17:35:10;;;;;;;247.63;129.45;;;5.10;90.10;;;;;;5060746;28;20443;-59
2022/03/02 17:37:36;;;;;;;393.23;197.88;;;5.10;90.40;;;;;;5073796;28;20025;-54
2022/03/02 17:40:06;;;;;;;310.83;144.77;;;5.20;92.00;;;;;;5074031;28;20470;-61
2022/03/02 17:42:33;;;;;;;314.88;150.55;;;5.20;90.90;;;;;;5074092;28;20024;-61
2022/03/02 17:44:59;;;;;;;262.13;121.35;;;5.30;89.60;;;;;;5074021;28;20039;-64
2022/03/02 17:47:28;;;;;;;316.80;140.23;;;5.30;84.60;;;;;;5074249;28;20025;-57
2022/03/02 17:49:55;;;;;;;267.30;125.72;;;5.40;86.80;;;;;;5074040;28;20024;-66
2022/03/02 17:52:20;;;;;;;319.08;154.43;;;5.30;87.30;;;;;;5073783;28;20060;-60
2022/03/02 17:54:46;;;;;;;338.15;164.82;;;5.30;90.80;;;;;;5073994;28;20050;-55
2022/03/02 17:57:12;;;;;;;271.30;133.18;;;5.30;90.70;;;;;;5073862;28;20497;-56
2022/03/02 17:59:39;;;;;;;383.02;170.35;;;5.30;89.70;;;;;;5073864;28;20027;-59
2022/03/02 18:02:05;;;;;;;562.80;279.88;;;5.30;90.20;;;;;;5073918;28;20470;-51
2022/03/02 18:04:31;;;;;;;442.20;223.75;;;5.20;92.10;;;;;;5073699;28;20482;-60
2022/03/02 18:06:57;;;;;;;511.83;264.73;;;5.10;92.80;;;;;;5073989;28;20035;-56
2022/03/02 18:09:23;;;;;;;413.88;224.65;;;5.20;93.30;;;;;;5073825;28;20027;-60
2022/03/02 18:11:49;;;;;;;376.67;190.32;;;5.10;93.70;;;;;;5074201;28;20094;-61
2022/03/02 18:14:15;;;;;;;360.50;180.60;;;5.10;93.50;;;;;;5073565;28;20027;-63
2022/03/02 18:16:43;;;;;;;441.88;245.00;;;5.30;92.70;;;;;;5073921;28;20017;-59
2022/03/02 18:19:10;;;;;;;321.33;180.20;;;5.10;94.90;;;;;;5073651;28;20020;-54
2022/03/02 18:21:36;;;;;;;232.93;127.38;;;4.60;97.20;;;;;;5073384;28;20482;-63
2022/03/02 18:24:04;;;;;;;302.58;164.25;;;4.50;97.20;;;;;;5073512;28;20020;-63
2022/03/02 18:26:54;;;;;;;258.48;134.82;;;4.70;95.60;;;;;;5073534;28;20044;-63
2022/03/02 18:29:22;;;;;;;227.95;124.65;;;4.90;93.30;;;;;;5066264;28;20110;-57
2022/03/02 18:31:49;;;;;;;235.93;126.80;;;4.90;92.80;;;;;;5073738;28;20020;-55
2022/03/02 18:34:16;;;;;;;229.82;122.93;;;5.00;93.20;;;;;;5073127;28;20028;-58
2022/03/02 18:36:44;;;;;;;273.15;145.07;;;5.00;92.90;;;;;;5073163;28;20054;-60
2022/03/02 18:39:18;;;;;;;302.67;158.45;;;5.00;93.30;;;;;;5073341;28;20021;-59
2022/03/02 18:41:44;;;;;;;263.77;140.50;;;5.00;94.80;;;;;;5073616;28;20465;-58
2022/03/02 18:44:13;;;;;;;310.20;161.27;;;5.10;94.10;;;;;;5073284;28;20033;-64
2022/03/02 18:46:40;;;;;;;394.95;190.30;;;5.10;94.40;;;;;;5073132;28;20032;-64
2022/03/02 18:49:06;;;;;;;428.00;207.52;;;5.00;94.30;;;;;;5073098;28;20028;-58
2022/03/02 18:51:32;;;;;;;352.25;170.77;;;4.90;95.50;;;;;;5073736;28;20021;-55
2022/03/02 18:53:59;;;;;;;353.80;172.48;;;4.70;95.90;;;;;;5073192;28;20056;-57
2022/03/02 18:56:34;;;;;;;355.83;169.25;;;4.80;95.90;;;;;;5073116;28;20024;-57
2022/03/02 18:59:02;;;;;;;317.75;150.43;;;4.60;97.80;;;;;;5073167;28;20021;-57
2022/03/02 19:01:30;;;;;;;283.02;135.38;;;4.60;98.20;;;;;;5073327;28;20032;-60
2022/03/02 19:03:57;;;;;;;252.43;118.43;;;4.50;97.60;;;;;;5072699;28;20047;-63
2022/03/02 19:06:23;;;;;;;227.32;116.40;;;4.60;97.10;;;;;;5073071;28;20095;-58
2022/03/02 19:08:50;;;;;;;240.75;118.10;;;4.80;94.70;;;;;;5072974;28;20021;-62
2022/03/02 19:11:16;;;;;;;248.82;123.10;;;4.80;94.80;;;;;;5073065;28;20035;-59
2022/03/02 19:13:42;;;;;;;213.88;102.72;;;4.70;95.40;;;;;;5073179;28;20095;-62
2022/03/02 19:16:08;;;;;;;309.98;145.65;;;4.70;94.60;;;;;;5072942;28;20055;-63
2022/03/02 19:18:35;;;;;;;264.38;129.90;;;4.60;96.30;;;;;;5072825;28;20021;-59
2022/03/02 19:21:04;;;;;;;265.85;133.65;;;4.60;96.80;;;;;;5072976;28;20143;-58
2022/03/02 19:23:32;;;;;;;289.42;138.63;;;4.50;96.10;;;;;;5072788;28;20027;-63
2022/03/02 19:26:00;;;;;;;448.17;223.27;;;4.40;97.60;;;;;;5072904;28;20494;-56
2022/03/02 19:28:28;;;;;;;352.25;168.55;;;4.20;99.10;;;;;;5072942;28;20541;-56
2022/03/02 19:30:57;;;;;;;271.90;132.10;;;4.30;98.10;;;;;;5072809;28;20017;-60
2022/03/02 19:33:23;;;;;;;244.70;125.18;;;4.40;97.50;;;;;;5072594;28;20027;-61
2022/03/02 19:35:48;;;;;;;274.58;143.43;;;4.60;95.20;;;;;;5072533;28;20045;-61